sensor_id;sensor_type;location;lat;lon;timestamp;noise_LAeq;noise_LA_min;noise_LA_max;noise_LA01;noise_LA95
46749;Laerm;33775;47.992;11.864;2022-11-20T00:01:08;36.43;28.67;39.46;;
46749;Laerm;33775;47.992;11.864;2022-11-20T00:03:34;36.45;30.89;39.81;;
46749;Laerm;33775;47.992;11.864;2022-11-20T00:06:02;36.48;30.89;39.58;;
46749;Laerm;33775;47.992;11.864;2022-11-20T00:08:28;36.48;30.54;39.34;;
46749;Laerm;33775;47.992;11.864;2022-11-20T00:10:53;36.47;28.67;39.58;;
46749;Laerm;33775;47.992;11.864;2022-11-20T00:13:18;36.46;30.89;39.46;;
46749;Laerm;33775;47.992;11.864;2022-11-20T00:15:43;36.48;30.89;39.46;;
46749;Laerm;33775;47.992;11.864;2022-11-20T00:18:09;36.50;28.67;39.58;;
46749;Laerm;33775;47.992;11.864;2022-11-20T00:20:34;36.50;28.67;39.81;;
46749;Laerm;33775;47.992;11.864;2022-11-20T00:22:59;36.45;28.67;39.34;;
46749;Laerm;33775;47.992;11.864;2022-11-20T00:25:24;36.50;28.67;39.70;;
46749;Laerm;33775;47.992;11.864;2022-11-20T00:27:50;36.50;29.92;39.34;;
46749;Laerm;33775;47.992;11.864;2022-11-20T00:30:15;36.48;28.67;39.21;;
46749;Laerm;33775;47.992;11.864;2022-11-20T00:32:40;36.49;29.92;39.58;;
46749;Laerm;33775;47.992;11.864;2022-11-20T00:35:05;36.44;29.92;39.21;;
46749;Laerm;33775;47.992;11.864;2022-11-20T00:37:31;36.46;28.67;39.34;;
46749;Laerm;33775;47.992;11.864;2022-11-20T00:39:56;36.44;30.89;39.21;;
46749;Laerm;33775;47.992;11.864;2022-11-20T00:42:21;36.42;26.91;39.46;;
46749;Laerm;33775;47.992;11.864;2022-11-20T00:44:46;36.44;30.89;39.46;;
46749;Laerm;33775;47.992;11.864;2022-11-20T00:47:11;36.48;30.89;39.46;;
46749;Laerm;33775;47.992;11.864;2022-11-20T00:49:37;36.51;29.92;39.21;;
46749;Laerm;33775;47.992;11.864;2022-11-20T00:52:02;36.52;26.91;39.46;;
46749;Laerm;33775;47.992;11.864;2022-11-20T00:54:27;36.54;29.92;39.81;;
46749;Laerm;33775;47.992;11.864;2022-11-20T00:56:53;36.54;30.89;40.03;;
46749;Laerm;33775;47.992;11.864;2022-11-20T00:59:18;36.58;29.92;39.81;;
46749;Laerm;33775;47.992;11.864;2022-11-20T01:01:43;36.57;29.92;39.46;;
46749;Laerm;33775;47.992;11.864;2022-11-20T01:04:09;36.60;30.89;40.13;;
46749;Laerm;33775;47.992;11.864;2022-11-20T01:06:35;36.59;29.92;39.81;;
46749;Laerm;33775;47.992;11.864;2022-11-20T01:09:02;36.59;31.68;39.92;;
46749;Laerm;33775;47.992;11.864;2022-11-20T01:11:29;36.59;28.67;39.70;;
46749;Laerm;33775;47.992;11.864;2022-11-20T01:13:55;36.60;28.67;39.58;;
46749;Laerm;33775;47.992;11.864;2022-11-20T01:16:28;36.63;30.89;39.57;;
46749;Laerm;33775;47.992;11.864;2022-11-20T01:18:55;36.64;29.92;39.46;;
46749;Laerm;33775;47.992;11.864;2022-11-20T01:21:22;36.66;29.92;39.81;;
46749;Laerm;33775;47.992;11.864;2022-11-20T01:23:48;36.66;31.68;39.68;;
46749;Laerm;33775;47.992;11.864;2022-11-20T01:26:15;36.69;29.92;40.03;;
46749;Laerm;33775;47.992;11.864;2022-11-20T01:28:41;36.67;30.89;40.03;;
46749;Laerm;33775;47.992;11.864;2022-11-20T01:31:16;36.66;31.68;39.81;;
46749;Laerm;33775;47.992;11.864;2022-11-20T01:33:42;36.67;30.89;39.46;;
46749;Laerm;33775;47.992;11.864;2022-11-20T01:36:08;36.67;30.89;39.58;;
46749;Laerm;33775;47.992;11.864;2022-11-20T01:38:33;36.64;29.92;39.34;;
46749;Laerm;33775;47.992;11.864;2022-11-20T01:40:59;36.67;30.89;39.46;;
46749;Laerm;33775;47.992;11.864;2022-11-20T01:43:24;36.63;31.33;39.81;;
46749;Laerm;33775;47.992;11.864;2022-11-20T01:46:01;36.66;31.68;39.58;;
46749;Laerm;33775;47.992;11.864;2022-11-20T01:48:38;36.65;30.54;39.46;;
46749;Laerm;33775;47.992;11.864;2022-11-20T01:51:29;36.66;29.92;39.70;;
46749;Laerm;33775;47.992;11.864;2022-11-20T01:53:51;36.65;30.89;39.81;;
46749;Laerm;33775;47.992;11.864;2022-11-20T01:56:19;36.69;31.68;39.92;;
46749;Laerm;33775;47.992;11.864;2022-11-20T01:58:46;36.66;31.68;39.70;;
46749;Laerm;33775;47.992;11.864;2022-11-20T02:01:13;36.69;30.89;40.23;;
46749;Laerm;33775;47.992;11.864;2022-11-20T02:03:38;36.68;30.89;39.34;;
46749;Laerm;33775;47.992;11.864;2022-11-20T02:06:22;36.67;28.67;39.58;;
46749;Laerm;33775;47.992;11.864;2022-11-20T02:08:49;36.70;30.89;39.70;;
46749;Laerm;33775;47.992;11.864;2022-11-20T02:11:15;36.71;29.57;39.46;;
46749;Laerm;33775;47.992;11.864;2022-11-20T02:13:40;36.71;30.54;39.46;;
46749;Laerm;33775;47.992;11.864;2022-11-20T02:18:40;36.68;31.68;39.70;;
46749;Laerm;33775;47.992;11.864;2022-11-20T02:21:07;36.72;31.68;40.08;;
46749;Laerm;33775;47.992;11.864;2022-11-20T02:23:52;36.72;31.68;39.92;;
46749;Laerm;33775;47.992;11.864;2022-11-20T02:26:17;36.74;31.68;39.70;;
46749;Laerm;33775;47.992;11.864;2022-11-20T02:28:44;36.74;32.35;39.70;;
46749;Laerm;33775;47.992;11.864;2022-11-20T02:31:09;36.77;30.89;40.03;;
46749;Laerm;33775;47.992;11.864;2022-11-20T02:33:34;36.76;30.89;39.58;;
46749;Laerm;33775;47.992;11.864;2022-11-20T02:35:59;36.73;31.68;39.92;;
46749;Laerm;33775;47.992;11.864;2022-11-20T02:38:25;36.76;30.89;40.03;;
46749;Laerm;33775;47.992;11.864;2022-11-20T02:40:50;36.75;29.92;40.13;;
46749;Laerm;33775;47.992;11.864;2022-11-20T02:43:15;36.76;30.89;39.81;;
46749;Laerm;33775;47.992;11.864;2022-11-20T02:45:41;36.77;30.89;40.03;;
46749;Laerm;33775;47.992;11.864;2022-11-20T02:48:06;36.76;29.92;39.92;;
46749;Laerm;33775;47.992;11.864;2022-11-20T02:50:32;36.74;30.54;40.13;;
46749;Laerm;33775;47.992;11.864;2022-11-20T02:52:57;36.75;30.89;39.58;;
46749;Laerm;33775;47.992;11.864;2022-11-20T02:55:23;36.76;28.67;39.81;;
46749;Laerm;33775;47.992;11.864;2022-11-20T02:57:48;36.75;30.89;39.70;;
46749;Laerm;33775;47.992;11.864;2022-11-20T03:00:13;36.78;31.68;39.81;;
46749;Laerm;33775;47.992;11.864;2022-11-20T03:02:38;36.76;29.92;39.92;;
46749;Laerm;33775;47.992;11.864;2022-11-20T03:05:04;36.75;28.67;40.03;;
46749;Laerm;33775;47.992;11.864;2022-11-20T03:07:29;36.73;30.89;39.58;;
46749;Laerm;33775;47.992;11.864;2022-11-20T03:09:54;36.72;29.92;40.23;;
46749;Laerm;33775;47.992;11.864;2022-11-20T03:12:19;36.71;30.89;39.70;;
46749;Laerm;33775;47.992;11.864;2022-11-20T03:14:44;36.69;29.92;39.81;;
46749;Laerm;33775;47.992;11.864;2022-11-20T03:17:10;36.66;30.89;39.70;;
46749;Laerm;33775;47.992;11.864;2022-11-20T03:19:35;36.61;28.67;39.46;;
46749;Laerm;33775;47.992;11.864;2022-11-20T03:22:00;36.60;30.89;39.81;;
46749;Laerm;33775;47.992;11.864;2022-11-20T03:24:25;36.57;29.92;39.92;;
46749;Laerm;33775;47.992;11.864;2022-11-20T03:26:51;36.58;29.92;39.70;;
46749;Laerm;33775;47.992;11.864;2022-11-20T03:29:16;36.64;28.67;39.70;;
46749;Laerm;33775;47.992;11.864;2022-11-20T03:31:41;36.64;29.92;39.46;;
46749;Laerm;33775;47.992;11.864;2022-11-20T03:34:07;36.63;28.67;39.70;;
46749;Laerm;33775;47.992;11.864;2022-11-20T03:36:32;36.60;30.89;39.92;;
46749;Laerm;33775;47.992;11.864;2022-11-20T03:38:58;36.56;30.89;39.70;;
46749;Laerm;33775;47.992;11.864;2022-11-20T03:41:25;36.54;30.89;39.57;;
46749;Laerm;33775;47.992;11.864;2022-11-20T03:43:51;36.54;30.89;39.92;;
46749;Laerm;33775;47.992;11.864;2022-11-20T03:46:17;36.51;31.68;39.34;;
46749;Laerm;33775;47.992;11.864;2022-11-20T03:48:42;36.55;30.89;39.81;;
46749;Laerm;33775;47.992;11.864;2022-11-20T03:53:39;36.52;30.89;39.34;;
46749;Laerm;33775;47.992;11.864;2022-11-20T03:56:05;36.53;26.91;39.70;;
46749;Laerm;33775;47.992;11.864;2022-11-20T03:58:30;36.54;30.89;39.46;;
46749;Laerm;33775;47.992;11.864;2022-11-20T04:00:56;36.54;29.92;39.58;;
46749;Laerm;33775;47.992;11.864;2022-11-20T04:03:21;36.53;28.67;39.46;;
46749;Laerm;33775;47.992;11.864;2022-11-20T04:05:46;36.58;29.92;39.34;;
46749;Laerm;33775;47.992;11.864;2022-11-20T04:08:11;36.57;30.89;39.46;;
46749;Laerm;33775;47.992;11.864;2022-11-20T04:10:36;36.57;29.92;40.08;;
46749;Laerm;33775;47.992;11.864;2022-11-20T04:13:02;36.59;30.89;39.46;;
46749;Laerm;33775;47.992;11.864;2022-11-20T04:15:28;36.61;30.54;39.58;;
46749;Laerm;33775;47.992;11.864;2022-11-20T04:17:53;36.62;31.68;39.46;;
46749;Laerm;33775;47.992;11.864;2022-11-20T04:20:18;36.65;29.92;39.58;;
46749;Laerm;33775;47.992;11.864;2022-11-20T04:22:44;36.60;29.92;39.34;;
46749;Laerm;33775;47.992;11.864;2022-11-20T04:25:09;36.60;28.67;39.70;;
46749;Laerm;33775;47.992;11.864;2022-11-20T04:27:34;36.60;31.33;39.70;;
46749;Laerm;33775;47.992;11.864;2022-11-20T04:30:00;36.66;31.68;39.92;;
46749;Laerm;33775;47.992;11.864;2022-11-20T04:32:25;36.66;30.89;39.81;;
46749;Laerm;33775;47.992;11.864;2022-11-20T04:34:50;36.71;26.91;39.70;;
46749;Laerm;33775;47.992;11.864;2022-11-20T04:37:15;36.72;31.68;39.58;;
46749;Laerm;33775;47.992;11.864;2022-11-20T04:39:40;36.68;30.89;39.81;;
46749;Laerm;33775;47.992;11.864;2022-11-20T04:42:07;36.72;29.57;39.92;;
46749;Laerm;33775;47.992;11.864;2022-11-20T04:44:51;36.73;30.89;40.23;;
46749;Laerm;33775;47.992;11.864;2022-11-20T04:47:16;36.73;30.89;39.92;;
46749;Laerm;33775;47.992;11.864;2022-11-20T04:49:41;36.74;29.92;39.92;;
46749;Laerm;33775;47.992;11.864;2022-11-20T04:52:07;36.75;29.92;39.92;;
46749;Laerm;33775;47.992;11.864;2022-11-20T04:54:32;36.73;31.68;39.81;;
46749;Laerm;33775;47.992;11.864;2022-11-20T04:56:57;36.76;30.89;39.92;;
46749;Laerm;33775;47.992;11.864;2022-11-20T04:59:22;36.77;29.92;39.92;;
46749;Laerm;33775;47.992;11.864;2022-11-20T05:01:47;36.74;31.68;40.03;;
46749;Laerm;33775;47.992;11.864;2022-11-20T05:04:13;36.72;29.92;39.81;;
46749;Laerm;33775;47.992;11.864;2022-11-20T05:06:38;36.78;30.89;39.81;;
46749;Laerm;33775;47.992;11.864;2022-11-20T05:09:03;36.72;31.68;39.70;;
46749;Laerm;33775;47.992;11.864;2022-11-20T05:11:28;36.74;31.33;39.70;;
46749;Laerm;33775;47.992;11.864;2022-11-20T05:13:54;36.74;30.54;40.13;;
46749;Laerm;33775;47.992;11.864;2022-11-20T05:16:22;36.68;30.89;39.58;;
46749;Laerm;33775;47.992;11.864;2022-11-20T05:18:48;36.74;30.89;39.70;;
46749;Laerm;33775;47.992;11.864;2022-11-20T05:21:13;36.71;28.67;39.34;;
46749;Laerm;33775;47.992;11.864;2022-11-20T05:23:39;36.74;32.00;40.03;;
46749;Laerm;33775;47.992;11.864;2022-11-20T05:26:05;36.75;31.68;39.70;;
46749;Laerm;33775;47.992;11.864;2022-11-20T05:28:31;36.73;30.89;39.46;;
46749;Laerm;33775;47.992;11.864;2022-11-20T05:31:03;36.77;31.68;39.58;;
46749;Laerm;33775;47.992;11.864;2022-11-20T05:33:29;36.69;30.89;40.03;;
46749;Laerm;33775;47.992;11.864;2022-11-20T05:35:57;36.74;30.89;39.58;;
46749;Laerm;33775;47.992;11.864;2022-11-20T05:38:22;36.71;29.92;40.23;;
46749;Laerm;33775;47.992;11.864;2022-11-20T05:40:47;36.74;30.89;39.92;;
46749;Laerm;33775;47.992;11.864;2022-11-20T05:43:13;36.72;29.57;39.81;;
46749;Laerm;33775;47.992;11.864;2022-11-20T05:45:38;36.74;29.92;39.70;;
46749;Laerm;33775;47.992;11.864;2022-11-20T05:48:03;36.71;29.92;40.33;;
46749;Laerm;33775;47.992;11.864;2022-11-20T05:50:28;36.70;29.92;39.46;;
46749;Laerm;33775;47.992;11.864;2022-11-20T05:52:54;36.68;31.68;39.70;;
46749;Laerm;33775;47.992;11.864;2022-11-20T05:55:19;36.72;31.68;39.58;;
46749;Laerm;33775;47.992;11.864;2022-11-20T05:57:44;36.70;30.89;40.03;;
46749;Laerm;33775;47.992;11.864;2022-11-20T06:00:10;36.67;30.89;39.58;;
46749;Laerm;33775;47.992;11.864;2022-11-20T06:02:35;36.70;30.89;40.23;;
46749;Laerm;33775;47.992;11.864;2022-11-20T06:05:01;36.67;30.89;40.03;;
46749;Laerm;33775;47.992;11.864;2022-11-20T06:07:26;36.72;32.00;39.81;;
46749;Laerm;33775;47.992;11.864;2022-11-20T06:09:51;36.69;29.92;39.81;;
46749;Laerm;33775;47.992;11.864;2022-11-20T06:12:16;36.67;28.67;39.92;;
46749;Laerm;33775;47.992;11.864;2022-11-20T06:14:41;36.66;30.89;39.58;;
46749;Laerm;33775;47.992;11.864;2022-11-20T06:17:06;36.71;30.89;39.58;;
46749;Laerm;33775;47.992;11.864;2022-11-20T06:19:31;36.68;29.92;40.03;;
46749;Laerm;33775;47.992;11.864;2022-11-20T06:21:57;36.70;28.67;39.58;;
46749;Laerm;33775;47.992;11.864;2022-11-20T06:24:22;36.69;28.67;39.46;;
46749;Laerm;33775;47.992;11.864;2022-11-20T06:26:47;36.68;30.89;39.58;;
46749;Laerm;33775;47.992;11.864;2022-11-20T06:29:13;36.69;30.89;39.89;;
46749;Laerm;33775;47.992;11.864;2022-11-20T06:31:38;36.71;30.89;39.70;;
46749;Laerm;33775;47.992;11.864;2022-11-20T06:34:03;36.74;30.89;39.70;;
46749;Laerm;33775;47.992;11.864;2022-11-20T06:36:30;36.71;31.33;39.70;;
46749;Laerm;33775;47.992;11.864;2022-11-20T06:38:55;36.72;31.68;39.92;;
46749;Laerm;33775;47.992;11.864;2022-11-20T06:41:21;36.75;30.89;39.58;;
46749;Laerm;33775;47.992;11.864;2022-11-20T06:43:46;36.76;31.68;40.33;;
46749;Laerm;33775;47.992;11.864;2022-11-20T06:46:12;36.76;31.68;39.58;;
46749;Laerm;33775;47.992;11.864;2022-11-20T06:48:37;36.75;30.89;40.13;;
46749;Laerm;33775;47.992;11.864;2022-11-20T06:51:03;36.77;29.92;39.70;;
46749;Laerm;33775;47.992;11.864;2022-11-20T06:53:29;36.75;28.67;40.03;;
46749;Laerm;33775;47.992;11.864;2022-11-20T06:55:56;36.70;30.89;39.70;;
46749;Laerm;33775;47.992;11.864;2022-11-20T06:58:22;36.71;29.92;39.81;;
46749;Laerm;33775;47.992;11.864;2022-11-20T07:00:47;36.75;31.68;39.89;;
46749;Laerm;33775;47.992;11.864;2022-11-20T07:03:13;36.75;30.89;40.03;;
46749;Laerm;33775;47.992;11.864;2022-11-20T07:05:38;36.75;30.89;39.92;;
46749;Laerm;33775;47.992;11.864;2022-11-20T07:08:04;36.71;31.68;39.81;;
46749;Laerm;33775;47.992;11.864;2022-11-20T07:10:29;36.75;28.67;39.70;;
46749;Laerm;33775;47.992;11.864;2022-11-20T07:12:54;36.72;29.92;39.58;;
46749;Laerm;33775;47.992;11.864;2022-11-20T07:15:20;36.73;30.89;39.81;;
46749;Laerm;33775;47.992;11.864;2022-11-20T07:17:46;36.72;29.92;40.23;;
46749;Laerm;33775;47.992;11.864;2022-11-20T07:20:11;36.72;30.89;39.46;;
46749;Laerm;33775;47.992;11.864;2022-11-20T07:22:36;36.71;31.68;39.70;;
46749;Laerm;33775;47.992;11.864;2022-11-20T07:25:02;36.69;30.89;39.70;;
46749;Laerm;33775;47.992;11.864;2022-11-20T07:27:27;36.70;30.89;39.81;;
46749;Laerm;33775;47.992;11.864;2022-11-20T07:29:52;36.69;31.68;40.03;;
46749;Laerm;33775;47.992;11.864;2022-11-20T07:32:18;36.71;29.92;39.81;;
46749;Laerm;33775;47.992;11.864;2022-11-20T07:34:43;36.71;29.92;39.92;;
46749;Laerm;33775;47.992;11.864;2022-11-20T07:37:08;36.71;31.68;39.92;;
46749;Laerm;33775;47.992;11.864;2022-11-20T07:39:34;36.75;30.89;39.92;;
46749;Laerm;33775;47.992;11.864;2022-11-20T07:41:59;36.74;30.89;39.70;;
46749;Laerm;33775;47.992;11.864;2022-11-20T07:44:24;36.74;30.89;39.81;;
46749;Laerm;33775;47.992;11.864;2022-11-20T07:46:50;36.71;30.89;39.78;;
46749;Laerm;33775;47.992;11.864;2022-11-20T07:49:15;36.76;32.00;39.70;;
46749;Laerm;33775;47.992;11.864;2022-11-20T07:51:40;36.78;30.54;39.92;;
46749;Laerm;33775;47.992;11.864;2022-11-20T07:54:05;36.75;31.68;39.92;;
46749;Laerm;33775;47.992;11.864;2022-11-20T07:56:30;36.82;30.89;39.58;;
46749;Laerm;33775;47.992;11.864;2022-11-20T07:58:55;36.78;31.68;39.58;;
46749;Laerm;33775;47.992;11.864;2022-11-20T08:01:21;36.76;29.92;39.92;;
46749;Laerm;33775;47.992;11.864;2022-11-20T08:03:46;36.76;29.57;40.33;;
46749;Laerm;33775;47.992;11.864;2022-11-20T08:06:11;36.71;29.92;39.81;;
46749;Laerm;33775;47.992;11.864;2022-11-20T08:08:36;36.71;29.92;39.92;;
46749;Laerm;33775;47.992;11.864;2022-11-20T08:11:04;36.67;30.89;39.81;;
46749;Laerm;33775;47.992;11.864;2022-11-20T08:13:48;36.65;29.92;40.03;;
46749;Laerm;33775;47.992;11.864;2022-11-20T08:16:32;36.63;30.89;39.81;;
46749;Laerm;33775;47.992;11.864;2022-11-20T08:18:57;36.58;28.67;39.58;;
46749;Laerm;33775;47.992;11.864;2022-11-20T08:21:22;36.57;30.89;39.92;;
46749;Laerm;33775;47.992;11.864;2022-11-20T08:23:47;36.57;30.89;40.03;;
46749;Laerm;33775;47.992;11.864;2022-11-20T08:26:13;36.59;29.92;39.58;;
46749;Laerm;33775;47.992;11.864;2022-11-20T08:28:38;36.56;30.89;39.58;;
46749;Laerm;33775;47.992;11.864;2022-11-20T08:31:04;36.57;30.89;39.92;;
46749;Laerm;33775;47.992;11.864;2022-11-20T08:33:29;36.61;29.92;39.81;;
46749;Laerm;33775;47.992;11.864;2022-11-20T08:36:04;36.55;29.92;39.70;;
46749;Laerm;33775;47.992;11.864;2022-11-20T08:38:30;36.57;28.67;39.58;;
46749;Laerm;33775;47.992;11.864;2022-11-20T08:40:56;36.53;28.67;39.46;;
46749;Laerm;33775;47.992;11.864;2022-11-20T08:43:40;36.54;29.92;39.46;;
46749;Laerm;33775;47.992;11.864;2022-11-20T08:46:05;36.57;30.89;39.81;;
46749;Laerm;33775;47.992;11.864;2022-11-20T08:48:30;36.56;31.68;39.46;;
46749;Laerm;33775;47.992;11.864;2022-11-20T08:50:57;36.55;28.67;39.34;;
46749;Laerm;33775;47.992;11.864;2022-11-20T08:53:22;36.57;30.89;39.58;;
46749;Laerm;33775;47.992;11.864;2022-11-20T08:55:48;36.56;30.89;39.58;;
46749;Laerm;33775;47.992;11.864;2022-11-20T08:58:13;36.56;30.89;39.46;;
46749;Laerm;33775;47.992;11.864;2022-11-20T09:00:38;36.59;28.67;39.34;;
46749;Laerm;33775;47.992;11.864;2022-11-20T09:03:03;36.59;30.89;39.34;;
46749;Laerm;33775;47.992;11.864;2022-11-20T09:05:28;36.58;30.54;39.34;;
46749;Laerm;33775;47.992;11.864;2022-11-20T09:07:57;36.60;31.33;39.70;;
46749;Laerm;33775;47.992;11.864;2022-11-20T09:10:22;36.60;29.92;39.34;;
46749;Laerm;33775;47.992;11.864;2022-11-20T09:12:51;36.60;30.89;39.70;;
46749;Laerm;33775;47.992;11.864;2022-11-20T09:15:16;36.62;28.67;39.46;;
46749;Laerm;33775;47.992;11.864;2022-11-20T09:17:42;36.62;29.92;39.58;;
46749;Laerm;33775;47.992;11.864;2022-11-20T09:20:07;36.64;31.68;39.81;;
46749;Laerm;33775;47.992;11.864;2022-11-20T09:22:32;36.63;29.92;39.58;;
46749;Laerm;33775;47.992;11.864;2022-11-20T09:24:57;36.63;29.92;39.46;;
46749;Laerm;33775;47.992;11.864;2022-11-20T09:27:23;36.67;30.89;39.81;;
46749;Laerm;33775;47.992;11.864;2022-11-20T09:29:48;36.65;30.89;39.46;;
46749;Laerm;33775;47.992;11.864;2022-11-20T09:32:13;36.67;30.54;39.70;;
46749;Laerm;33775;47.992;11.864;2022-11-20T09:34:39;36.68;30.89;39.58;;
46749;Laerm;33775;47.992;11.864;2022-11-20T09:37:04;36.66;29.92;39.70;;
46749;Laerm;33775;47.992;11.864;2022-11-20T09:39:29;36.69;30.89;39.92;;
46749;Laerm;33775;47.992;11.864;2022-11-20T09:41:58;36.67;30.89;39.58;;
46749;Laerm;33775;47.992;11.864;2022-11-20T09:47:11;36.69;29.92;39.70;;
46749;Laerm;33775;47.992;11.864;2022-11-20T09:50:04;36.70;30.89;39.46;;
46749;Laerm;33775;47.992;11.864;2022-11-20T09:52:32;36.74;31.68;40.03;;
46749;Laerm;33775;47.992;11.864;2022-11-20T09:55:02;36.73;32.35;39.92;;
46749;Laerm;33775;47.992;11.864;2022-11-20T09:57:35;36.75;29.92;39.70;;
46749;Laerm;33775;47.992;11.864;2022-11-20T10:00:02;36.76;30.89;39.58;;
46749;Laerm;33775;47.992;11.864;2022-11-20T10:03:16;36.76;31.68;39.70;;
46749;Laerm;33775;47.992;11.864;2022-11-20T10:05:17;36.77;30.89;39.99;;
46749;Laerm;33775;47.992;11.864;2022-11-20T10:07:46;36.82;31.68;39.70;;
46749;Laerm;33775;47.992;11.864;2022-11-20T10:10:15;36.81;31.68;39.70;;
46749;Laerm;33775;47.992;11.864;2022-11-20T10:15:34;36.83;31.68;39.92;;
46749;Laerm;33775;47.992;11.864;2022-11-20T10:31:02;36.88;30.89;39.81;;
46749;Laerm;33775;47.992;11.864;2022-11-20T10:33:39;36.88;32.35;39.70;;
46749;Laerm;33775;47.992;11.864;2022-11-20T10:38:44;36.92;29.92;39.92;;
46749;Laerm;33775;47.992;11.864;2022-11-20T10:41:11;36.95;31.68;39.81;;
46749;Laerm;33775;47.992;11.864;2022-11-20T10:43:51;36.94;32.93;39.81;;
46749;Laerm;33775;47.992;11.864;2022-11-20T10:46:18;36.98;32.35;39.70;;
46749;Laerm;33775;47.992;11.864;2022-11-20T10:48:45;36.95;31.68;39.81;;
46749;Laerm;33775;47.992;11.864;2022-11-20T10:51:13;36.96;32.35;39.58;;
46749;Laerm;33775;47.992;11.864;2022-11-20T10:56:05;37.01;32.93;39.92;;
46749;Laerm;33775;47.992;11.864;2022-11-20T11:01:23;37.07;32.93;39.92;;
46749;Laerm;33775;47.992;11.864;2022-11-20T11:03:51;37.02;31.68;40.03;;
46749;Laerm;33775;47.992;11.864;2022-11-20T11:06:34;37.06;30.89;40.23;;
46749;Laerm;33775;47.992;11.864;2022-11-20T11:09:03;37.13;28.67;39.58;;
46749;Laerm;33775;47.992;11.864;2022-11-20T11:11:30;37.28;32.93;39.92;;
46749;Laerm;33775;47.992;11.864;2022-11-20T11:14:06;37.30;33.44;39.81;;
46749;Laerm;33775;47.992;11.864;2022-11-20T11:16:32;37.15;32.35;40.33;;
46749;Laerm;33775;47.992;11.864;2022-11-20T11:19:04;37.13;32.93;39.81;;
46749;Laerm;33775;47.992;11.864;2022-11-20T11:21:29;37.11;32.35;39.92;;
46749;Laerm;33775;47.992;11.864;2022-11-20T11:23:59;37.16;31.68;41.61;;
46749;Laerm;33775;47.992;11.864;2022-11-20T11:26:24;37.23;31.68;39.70;;
46749;Laerm;33775;47.992;11.864;2022-11-20T11:29:15;37.13;32.35;40.23;;
46749;Laerm;33775;47.992;11.864;2022-11-20T11:31:39;37.11;32.35;39.81;;
46749;Laerm;33775;47.992;11.864;2022-11-20T11:36:30;37.05;32.93;39.81;;
46749;Laerm;33775;47.992;11.864;2022-11-20T11:38:55;37.06;32.93;39.70;;
46749;Laerm;33775;47.992;11.864;2022-11-20T11:41:22;37.05;32.35;39.81;;
46749;Laerm;33775;47.992;11.864;2022-11-20T11:44:14;37.01;32.35;39.81;;
46749;Laerm;33775;47.992;11.864;2022-11-20T11:46:53;37.03;30.89;39.81;;
46749;Laerm;33775;47.992;11.864;2022-11-20T11:49:19;37.01;32.35;40.23;;
46749;Laerm;33775;47.992;11.864;2022-11-20T11:54:17;37.02;31.68;39.92;;
46749;Laerm;33775;47.992;11.864;2022-11-20T11:56:44;37.03;31.68;39.81;;
46749;Laerm;33775;47.992;11.864;2022-11-20T11:59:12;36.99;32.93;39.81;;
46749;Laerm;33775;47.992;11.864;2022-11-20T12:01:44;36.99;30.54;40.03;;
46749;Laerm;33775;47.992;11.864;2022-11-20T12:04:44;37.01;32.93;39.81;;
46749;Laerm;33775;47.992;11.864;2022-11-20T12:07:03;37.01;32.35;39.92;;
46749;Laerm;33775;47.992;11.864;2022-11-20T12:09:37;37.05;30.89;39.58;;
46749;Laerm;33775;47.992;11.864;2022-11-20T12:12:08;37.01;32.35;39.92;;
46749;Laerm;33775;47.992;11.864;2022-11-20T12:14:38;37.04;32.35;39.58;;
46749;Laerm;33775;47.992;11.864;2022-11-20T12:17:07;36.99;32.93;39.46;;
46749;Laerm;33775;47.992;11.864;2022-11-20T12:19:35;37.02;32.93;40.03;;
46749;Laerm;33775;47.992;11.864;2022-11-20T12:27:01;37.01;32.35;39.58;;
46749;Laerm;33775;47.992;11.864;2022-11-20T12:40:15;36.99;32.93;39.92;;
46749;Laerm;33775;47.992;11.864;2022-11-20T12:42:45;36.97;32.00;39.58;;
46749;Laerm;33775;47.992;11.864;2022-11-20T12:51:04;36.98;31.68;39.81;;
46749;Laerm;33775;47.992;11.864;2022-11-20T12:53:37;36.97;31.68;39.70;;
46749;Laerm;33775;47.992;11.864;2022-11-20T12:56:17;36.94;31.68;39.81;;
46749;Laerm;33775;47.992;11.864;2022-11-20T12:58:53;36.95;31.68;39.70;;
46749;Laerm;33775;47.992;11.864;2022-11-20T13:01:27;36.95;31.68;39.81;;
46749;Laerm;33775;47.992;11.864;2022-11-20T13:06:45;36.94;32.35;39.70;;
46749;Laerm;33775;47.992;11.864;2022-11-20T13:09:12;36.92;31.68;39.70;;
46749;Laerm;33775;47.992;11.864;2022-11-20T13:11:47;36.94;30.89;39.58;;
46749;Laerm;33775;47.992;11.864;2022-11-20T13:14:24;36.90;32.35;39.58;;
46749;Laerm;33775;47.992;11.864;2022-11-20T13:16:57;36.93;31.68;39.81;;
46749;Laerm;33775;47.992;11.864;2022-11-20T13:19:24;36.87;32.35;39.92;;
46749;Laerm;33775;47.992;11.864;2022-11-20T13:21:50;36.86;31.68;39.58;;
46749;Laerm;33775;47.992;11.864;2022-11-20T13:26:43;36.83;31.68;39.46;;
46749;Laerm;33775;47.992;11.864;2022-11-20T13:29:16;36.80;30.89;40.62;;
46749;Laerm;33775;47.992;11.864;2022-11-20T13:31:48;36.78;31.68;39.58;;
46749;Laerm;33775;47.992;11.864;2022-11-20T13:34:23;36.76;30.89;40.23;;
46749;Laerm;33775;47.992;11.864;2022-11-20T13:36:50;36.72;29.92;39.92;;
46749;Laerm;33775;47.992;11.864;2022-11-20T13:41:57;36.65;30.89;39.58;;
46749;Laerm;33775;47.992;11.864;2022-11-20T13:44:25;36.64;30.89;39.92;;
46749;Laerm;33775;47.992;11.864;2022-11-20T13:46:52;36.68;26.91;39.81;;
46749;Laerm;33775;47.992;11.864;2022-11-20T13:49:20;36.68;29.92;39.70;;
46749;Laerm;33775;47.992;11.864;2022-11-20T13:51:47;36.73;30.89;39.92;;
46749;Laerm;33775;47.992;11.864;2022-11-20T13:54:17;36.76;29.92;39.92;;
46749;Laerm;33775;47.992;11.864;2022-11-20T13:59:40;36.81;29.92;39.70;;
46749;Laerm;33775;47.992;11.864;2022-11-20T14:02:13;36.77;29.92;39.92;;
46749;Laerm;33775;47.992;11.864;2022-11-20T14:04:41;36.78;30.54;39.70;;
46749;Laerm;33775;47.992;11.864;2022-11-20T14:07:07;36.74;30.89;39.81;;
46749;Laerm;33775;47.992;11.864;2022-11-20T14:09:34;36.75;29.92;39.81;;
46749;Laerm;33775;47.992;11.864;2022-11-20T14:11:59;36.72;30.89;40.03;;
46749;Laerm;33775;47.992;11.864;2022-11-20T14:14:25;36.70;29.92;39.58;;
46749;Laerm;33775;47.992;11.864;2022-11-20T14:16:52;36.73;29.92;40.33;;
46749;Laerm;33775;47.992;11.864;2022-11-20T14:21:46;36.66;30.89;39.81;;
46749;Laerm;33775;47.992;11.864;2022-11-20T14:24:12;36.64;29.92;39.70;;
46749;Laerm;33775;47.992;11.864;2022-11-20T14:26:41;36.61;29.92;39.58;;
46749;Laerm;33775;47.992;11.864;2022-11-20T14:29:28;36.59;29.92;39.70;;
46749;Laerm;33775;47.992;11.864;2022-11-20T14:31:52;36.62;29.92;39.58;;
46749;Laerm;33775;47.992;11.864;2022-11-20T14:34:19;36.57;28.67;39.70;;
46749;Laerm;33775;47.992;11.864;2022-11-20T14:36:45;36.60;29.92;39.70;;
46749;Laerm;33775;47.992;11.864;2022-11-20T14:39:11;36.56;28.67;39.92;;
46749;Laerm;33775;47.992;11.864;2022-11-20T14:41:37;36.61;29.92;39.58;;
46749;Laerm;33775;47.992;11.864;2022-11-20T14:44:02;36.60;26.91;39.58;;